sensor_id;sensor_type;location;lat;lon;timestamp;temperature;humidity
3281;DHT22;1652;51.318;6.202;2023-07-31T00:02:18;16.50;99.90
3281;DHT22;1652;51.318;6.202;2023-07-31T00:04:45;16.40;99.90
3281;DHT22;1652;51.318;6.202;2023-07-31T00:07:12;16.50;99.90
3281;DHT22;1652;51.318;6.202;2023-07-31T00:09:39;16.40;99.90
3281;DHT22;1652;51.318;6.202;2023-07-31T00:12:06;16.50;99.90
3281;DHT22;1652;51.318;6.202;2023-07-31T00:14:33;16.50;99.90
3281;DHT22;1652;51.318;6.202;2023-07-31T00:17:01;16.50;99.90
3281;DHT22;1652;51.318;6.202;2023-07-31T00:19:27;16.50;99.90
3281;DHT22;1652;51.318;6.202;2023-07-31T00:21:54;16.50;99.90
3281;DHT22;1652;51.318;6.202;2023-07-31T00:24:21;16.50;99.90
3281;DHT22;1652;51.318;6.202;2023-07-31T00:26:49;16.50;99.90
3281;DHT22;1652;51.318;6.202;2023-07-31T00:29:15;16.50;99.90
3281;DHT22;1652;51.318;6.202;2023-07-31T00:31:42;16.50;99.90
3281;DHT22;1652;51.318;6.202;2023-07-31T00:34:09;16.50;99.90
3281;DHT22;1652;51.318;6.202;2023-07-31T00:36:36;16.40;99.90
3281;DHT22;1652;51.318;6.202;2023-07-31T00:39:04;16.50;99.90
3281;DHT22;1652;51.318;6.202;2023-07-31T00:41:31;16.50;99.90
3281;DHT22;1652;51.318;6.202;2023-07-31T00:43:58;16.50;99.90
3281;DHT22;1652;51.318;6.202;2023-07-31T00:46:25;16.50;99.90
3281;DHT22;1652;51.318;6.202;2023-07-31T00:48:51;16.50;99.90
3281;DHT22;1652;51.318;6.202;2023-07-31T00:51:18;16.50;99.90
3281;DHT22;1652;51.318;6.202;2023-07-31T00:53:46;16.40;99.90
3281;DHT22;1652;51.318;6.202;2023-07-31T00:56:14;16.40;99.90
3281;DHT22;1652;51.318;6.202;2023-07-31T00:58:40;16.40;99.90
3281;DHT22;1652;51.318;6.202;2023-07-31T01:01:07;16.40;99.90
3281;DHT22;1652;51.318;6.202;2023-07-31T01:03:35;16.50;99.90
3281;DHT22;1652;51.318;6.202;2023-07-31T01:06:15;16.40;99.90
3281;DHT22;1652;51.318;6.202;2023-07-31T01:11:51;16.40;99.90
3281;DHT22;1652;51.318;6.202;2023-07-31T01:14:18;16.40;99.90
3281;DHT22;1652;51.318;6.202;2023-07-31T01:16:45;16.40;99.90
3281;DHT22;1652;51.318;6.202;2023-07-31T01:19:14;16.40;99.90
3281;DHT22;1652;51.318;6.202;2023-07-31T01:22:28;16.40;99.90
3281;DHT22;1652;51.318;6.202;2023-07-31T01:27:53;16.40;99.90
3281;DHT22;1652;51.318;6.202;2023-07-31T01:30:25;16.40;99.90
3281;DHT22;1652;51.318;6.202;2023-07-31T01:35:25;16.40;99.90
3281;DHT22;1652;51.318;6.202;2023-07-31T01:37:53;16.40;99.90
3281;DHT22;1652;51.318;6.202;2023-07-31T01:40:21;16.40;99.90
3281;DHT22;1652;51.318;6.202;2023-07-31T01:42:47;16.40;99.90
3281;DHT22;1652;51.318;6.202;2023-07-31T01:45:14;16.30;99.90
3281;DHT22;1652;51.318;6.202;2023-07-31T01:47:41;16.30;99.90
3281;DHT22;1652;51.318;6.202;2023-07-31T01:50:09;16.30;99.90
3281;DHT22;1652;51.318;6.202;2023-07-31T01:52:36;16.40;99.90
3281;DHT22;1652;51.318;6.202;2023-07-31T01:55:03;16.40;99.90
3281;DHT22;1652;51.318;6.202;2023-07-31T01:57:30;16.40;99.90
3281;DHT22;1652;51.318;6.202;2023-07-31T01:59:57;16.30;99.90
3281;DHT22;1652;51.318;6.202;2023-07-31T02:02:24;16.30;99.90
3281;DHT22;1652;51.318;6.202;2023-07-31T02:04:51;16.30;99.90
3281;DHT22;1652;51.318;6.202;2023-07-31T02:07:18;16.30;99.90
3281;DHT22;1652;51.318;6.202;2023-07-31T02:09:44;16.30;99.90
3281;DHT22;1652;51.318;6.202;2023-07-31T02:12:13;16.30;99.90
3281;DHT22;1652;51.318;6.202;2023-07-31T02:14:41;16.30;99.90
3281;DHT22;1652;51.318;6.202;2023-07-31T02:17:08;16.40;99.90
3281;DHT22;1652;51.318;6.202;2023-07-31T02:19:34;16.40;99.90
3281;DHT22;1652;51.318;6.202;2023-07-31T02:22:01;16.40;99.90
3281;DHT22;1652;51.318;6.202;2023-07-31T02:24:28;16.40;99.90
3281;DHT22;1652;51.318;6.202;2023-07-31T02:26:55;16.40;99.90
3281;DHT22;1652;51.318;6.202;2023-07-31T02:29:22;16.40;99.90
3281;DHT22;1652;51.318;6.202;2023-07-31T02:31:49;16.50;99.90
3281;DHT22;1652;51.318;6.202;2023-07-31T02:34:16;16.50;99.90
3281;DHT22;1652;51.318;6.202;2023-07-31T02:36:43;16.50;99.90
3281;DHT22;1652;51.318;6.202;2023-07-31T02:39:09;16.50;99.90
3281;DHT22;1652;51.318;6.202;2023-07-31T02:41:36;16.50;99.90
3281;DHT22;1652;51.318;6.202;2023-07-31T02:44:03;16.50;99.90
3281;DHT22;1652;51.318;6.202;2023-07-31T02:46:30;16.50;99.90
3281;DHT22;1652;51.318;6.202;2023-07-31T02:48:58;16.50;99.90
3281;DHT22;1652;51.318;6.202;2023-07-31T02:51:25;16.50;99.90
3281;DHT22;1652;51.318;6.202;2023-07-31T02:53:52;16.60;99.90
3281;DHT22;1652;51.318;6.202;2023-07-31T02:56:18;16.60;99.90
3281;DHT22;1652;51.318;6.202;2023-07-31T02:58:45;16.60;99.90
3281;DHT22;1652;51.318;6.202;2023-07-31T03:01:12;16.70;99.90
3281;DHT22;1652;51.318;6.202;2023-07-31T03:03:41;16.70;99.90
3281;DHT22;1652;51.318;6.202;2023-07-31T03:06:08;16.70;99.90
3281;DHT22;1652;51.318;6.202;2023-07-31T03:08:35;16.70;99.90
3281;DHT22;1652;51.318;6.202;2023-07-31T03:11:02;16.70;99.90
3281;DHT22;1652;51.318;6.202;2023-07-31T03:13:29;16.70;99.90
3281;DHT22;1652;51.318;6.202;2023-07-31T03:15:55;16.70;99.90
3281;DHT22;1652;51.318;6.202;2023-07-31T03:18:22;16.70;99.90
3281;DHT22;1652;51.318;6.202;2023-07-31T03:20:49;16.70;99.90
3281;DHT22;1652;51.318;6.202;2023-07-31T03:23:16;16.80;99.90
3281;DHT22;1652;51.318;6.202;2023-07-31T03:25:58;16.80;99.90
3281;DHT22;1652;51.318;6.202;2023-07-31T03:28:25;16.80;99.90
3281;DHT22;1652;51.318;6.202;2023-07-31T03:30:53;16.80;99.90
3281;DHT22;1652;51.318;6.202;2023-07-31T03:33:20;16.80;99.90
3281;DHT22;1652;51.318;6.202;2023-07-31T03:35:47;16.90;99.90
3281;DHT22;1652;51.318;6.202;2023-07-31T03:38:14;16.90;99.90
3281;DHT22;1652;51.318;6.202;2023-07-31T03:40:41;16.90;99.90
3281;DHT22;1652;51.318;6.202;2023-07-31T03:43:08;16.90;99.90
3281;DHT22;1652;51.318;6.202;2023-07-31T03:45:34;16.90;99.90
3281;DHT22;1652;51.318;6.202;2023-07-31T03:48:02;17.00;99.90
3281;DHT22;1652;51.318;6.202;2023-07-31T03:50:29;17.00;99.90
3281;DHT22;1652;51.318;6.202;2023-07-31T03:52:55;17.00;99.90
3281;DHT22;1652;51.318;6.202;2023-07-31T03:55:22;17.00;99.90
3281;DHT22;1652;51.318;6.202;2023-07-31T03:57:49;17.00;99.90
3281;DHT22;1652;51.318;6.202;2023-07-31T04:00:16;17.00;99.90
3281;DHT22;1652;51.318;6.202;2023-07-31T04:02:43;17.00;99.90
3281;DHT22;1652;51.318;6.202;2023-07-31T04:05:10;17.00;99.90
3281;DHT22;1652;51.318;6.202;2023-07-31T04:07:37;17.00;99.90
3281;DHT22;1652;51.318;6.202;2023-07-31T04:10:04;17.00;99.90
3281;DHT22;1652;51.318;6.202;2023-07-31T04:12:31;17.00;99.90
3281;DHT22;1652;51.318;6.202;2023-07-31T04:14:58;17.00;99.90
3281;DHT22;1652;51.318;6.202;2023-07-31T04:17:25;17.00;99.90
3281;DHT22;1652;51.318;6.202;2023-07-31T04:19:52;17.00;99.90
3281;DHT22;1652;51.318;6.202;2023-07-31T04:22:19;17.10;99.90
3281;DHT22;1652;51.318;6.202;2023-07-31T04:24:46;17.10;99.90
3281;DHT22;1652;51.318;6.202;2023-07-31T04:27:13;17.10;99.90
3281;DHT22;1652;51.318;6.202;2023-07-31T04:29:40;17.20;99.90
3281;DHT22;1652;51.318;6.202;2023-07-31T04:32:09;17.30;99.90
3281;DHT22;1652;51.318;6.202;2023-07-31T04:34:36;17.40;99.90
3281;DHT22;1652;51.318;6.202;2023-07-31T04:37:03;17.30;99.90
3281;DHT22;1652;51.318;6.202;2023-07-31T04:39:30;17.30;99.90
3281;DHT22;1652;51.318;6.202;2023-07-31T04:41:56;17.30;99.90
3281;DHT22;1652;51.318;6.202;2023-07-31T04:44:23;17.30;99.90
3281;DHT22;1652;51.318;6.202;2023-07-31T04:46:50;17.30;99.90
3281;DHT22;1652;51.318;6.202;2023-07-31T04:49:17;17.40;99.90
3281;DHT22;1652;51.318;6.202;2023-07-31T04:51:45;17.40;99.90
3281;DHT22;1652;51.318;6.202;2023-07-31T04:54:11;17.40;99.90
3281;DHT22;1652;51.318;6.202;2023-07-31T04:56:41;17.40;99.90
3281;DHT22;1652;51.318;6.202;2023-07-31T04:59:08;17.40;99.90
3281;DHT22;1652;51.318;6.202;2023-07-31T05:01:35;17.50;99.90
3281;DHT22;1652;51.318;6.202;2023-07-31T05:04:02;17.50;99.90
3281;DHT22;1652;51.318;6.202;2023-07-31T05:06:29;17.50;99.90
3281;DHT22;1652;51.318;6.202;2023-07-31T05:08:56;17.40;99.90
3281;DHT22;1652;51.318;6.202;2023-07-31T05:11:23;17.40;99.90
3281;DHT22;1652;51.318;6.202;2023-07-31T05:13:49;17.50;99.90
3281;DHT22;1652;51.318;6.202;2023-07-31T05:16:16;17.50;99.90
3281;DHT22;1652;51.318;6.202;2023-07-31T05:18:43;17.40;99.90
3281;DHT22;1652;51.318;6.202;2023-07-31T05:21:10;17.50;99.90
3281;DHT22;1652;51.318;6.202;2023-07-31T05:23:37;17.50;99.90
3281;DHT22;1652;51.318;6.202;2023-07-31T05:26:07;17.60;99.90
3281;DHT22;1652;51.318;6.202;2023-07-31T05:28:36;17.50;99.90
3281;DHT22;1652;51.318;6.202;2023-07-31T05:31:04;17.60;99.90
3281;DHT22;1652;51.318;6.202;2023-07-31T05:33:31;17.60;99.90
3281;DHT22;1652;51.318;6.202;2023-07-31T05:35:58;17.60;99.90
3281;DHT22;1652;51.318;6.202;2023-07-31T05:38:26;17.60;99.90
3281;DHT22;1652;51.318;6.202;2023-07-31T05:40:52;17.60;99.90
3281;DHT22;1652;51.318;6.202;2023-07-31T05:43:19;17.60;99.90
3281;DHT22;1652;51.318;6.202;2023-07-31T05:45:47;17.50;99.90
3281;DHT22;1652;51.318;6.202;2023-07-31T05:48:14;17.40;99.90
3281;DHT22;1652;51.318;6.202;2023-07-31T05:50:40;17.30;99.90
3281;DHT22;1652;51.318;6.202;2023-07-31T05:53:07;17.20;99.90
3281;DHT22;1652;51.318;6.202;2023-07-31T05:55:35;17.00;99.90
3281;DHT22;1652;51.318;6.202;2023-07-31T05:58:01;17.00;99.90
3281;DHT22;1652;51.318;6.202;2023-07-31T06:00:28;17.00;99.90
3281;DHT22;1652;51.318;6.202;2023-07-31T06:02:55;16.90;99.90
3281;DHT22;1652;51.318;6.202;2023-07-31T06:05:22;16.90;99.90
3281;DHT22;1652;51.318;6.202;2023-07-31T06:07:49;16.90;99.90
3281;DHT22;1652;51.318;6.202;2023-07-31T06:10:16;16.90;99.90
3281;DHT22;1652;51.318;6.202;2023-07-31T06:12:43;16.90;99.90
3281;DHT22;1652;51.318;6.202;2023-07-31T06:15:10;16.90;99.90
3281;DHT22;1652;51.318;6.202;2023-07-31T06:17:37;16.90;99.90
3281;DHT22;1652;51.318;6.202;2023-07-31T06:20:06;16.90;99.90
3281;DHT22;1652;51.318;6.202;2023-07-31T06:22:33;16.80;99.90
3281;DHT22;1652;51.318;6.202;2023-07-31T06:25:00;16.90;99.90
3281;DHT22;1652;51.318;6.202;2023-07-31T06:27:27;16.90;99.90
3281;DHT22;1652;51.318;6.202;2023-07-31T06:29:54;16.90;99.90
3281;DHT22;1652;51.318;6.202;2023-07-31T06:32:21;17.00;99.90
3281;DHT22;1652;51.318;6.202;2023-07-31T06:34:48;17.00;99.90
3281;DHT22;1652;51.318;6.202;2023-07-31T06:37:15;16.90;99.90
3281;DHT22;1652;51.318;6.202;2023-07-31T06:39:41;16.90;99.90
3281;DHT22;1652;51.318;6.202;2023-07-31T06:42:08;16.90;99.90
3281;DHT22;1652;51.318;6.202;2023-07-31T06:44:35;16.90;99.90
3281;DHT22;1652;51.318;6.202;2023-07-31T06:47:02;16.80;99.90
3281;DHT22;1652;51.318;6.202;2023-07-31T06:49:29;16.80;99.90
3281;DHT22;1652;51.318;6.202;2023-07-31T06:51:56;16.80;99.90
3281;DHT22;1652;51.318;6.202;2023-07-31T06:54:23;16.70;99.90
3281;DHT22;1652;51.318;6.202;2023-07-31T06:56:50;16.70;99.90
3281;DHT22;1652;51.318;6.202;2023-07-31T06:59:17;16.70;99.90
3281;DHT22;1652;51.318;6.202;2023-07-31T07:01:44;16.60;99.90
3281;DHT22;1652;51.318;6.202;2023-07-31T07:04:10;16.60;99.90
3281;DHT22;1652;51.318;6.202;2023-07-31T07:06:37;16.60;99.90
3281;DHT22;1652;51.318;6.202;2023-07-31T07:09:05;16.70;99.90
3281;DHT22;1652;51.318;6.202;2023-07-31T07:11:32;16.70;99.90
3281;DHT22;1652;51.318;6.202;2023-07-31T07:13:58;16.70;99.90
3281;DHT22;1652;51.318;6.202;2023-07-31T07:16:25;16.70;99.90
3281;DHT22;1652;51.318;6.202;2023-07-31T07:18:52;16.80;99.90
3281;DHT22;1652;51.318;6.202;2023-07-31T07:21:30;16.70;99.90
3281;DHT22;1652;51.318;6.202;2023-07-31T07:23:57;16.70;99.90
3281;DHT22;1652;51.318;6.202;2023-07-31T07:26:24;16.70;99.90
3281;DHT22;1652;51.318;6.202;2023-07-31T07:28:51;16.70;99.90
3281;DHT22;1652;51.318;6.202;2023-07-31T07:31:18;16.70;99.90
3281;DHT22;1652;51.318;6.202;2023-07-31T07:33:45;16.60;99.90
3281;DHT22;1652;51.318;6.202;2023-07-31T07:36:12;16.60;99.90
3281;DHT22;1652;51.318;6.202;2023-07-31T07:38:40;16.60;99.90
3281;DHT22;1652;51.318;6.202;2023-07-31T07:41:07;16.60;99.90
3281;DHT22;1652;51.318;6.202;2023-07-31T07:43:34;16.60;99.90
3281;DHT22;1652;51.318;6.202;2023-07-31T07:46:01;16.60;99.90
3281;DHT22;1652;51.318;6.202;2023-07-31T07:48:30;16.70;99.90
3281;DHT22;1652;51.318;6.202;2023-07-31T07:50:57;16.80;99.90
3281;DHT22;1652;51.318;6.202;2023-07-31T07:53:23;16.90;99.90
3281;DHT22;1652;51.318;6.202;2023-07-31T07:55:50;17.30;99.90
3281;DHT22;1652;51.318;6.202;2023-07-31T07:58:17;17.40;99.90
3281;DHT22;1652;51.318;6.202;2023-07-31T08:00:50;17.50;99.90
3281;DHT22;1652;51.318;6.202;2023-07-31T08:03:17;17.40;99.90
3281;DHT22;1652;51.318;6.202;2023-07-31T08:05:44;17.50;99.90
3281;DHT22;1652;51.318;6.202;2023-07-31T08:08:15;17.50;99.90
3281;DHT22;1652;51.318;6.202;2023-07-31T08:10:46;17.60;99.90
3281;DHT22;1652;51.318;6.202;2023-07-31T08:13:13;17.60;99.90
3281;DHT22;1652;51.318;6.202;2023-07-31T08:15:43;17.50;99.90
3281;DHT22;1652;51.318;6.202;2023-07-31T08:18:10;17.40;99.90
3281;DHT22;1652;51.318;6.202;2023-07-31T08:20:38;17.50;99.90
3281;DHT22;1652;51.318;6.202;2023-07-31T08:23:05;17.50;99.90
3281;DHT22;1652;51.318;6.202;2023-07-31T08:25:35;17.50;99.90
3281;DHT22;1652;51.318;6.202;2023-07-31T08:28:03;17.40;99.90
3281;DHT22;1652;51.318;6.202;2023-07-31T08:30:30;17.30;99.90
3281;DHT22;1652;51.318;6.202;2023-07-31T08:35:29;17.20;99.90
3281;DHT22;1652;51.318;6.202;2023-07-31T08:37:55;17.10;99.90
3281;DHT22;1652;51.318;6.202;2023-07-31T08:40:22;17.10;99.90
3281;DHT22;1652;51.318;6.202;2023-07-31T08:42:54;17.10;99.90
3281;DHT22;1652;51.318;6.202;2023-07-31T08:45:23;17.00;99.90
3281;DHT22;1652;51.318;6.202;2023-07-31T08:47:51;17.10;99.90
3281;DHT22;1652;51.318;6.202;2023-07-31T08:50:20;17.20;99.90
3281;DHT22;1652;51.318;6.202;2023-07-31T08:52:49;17.20;99.90
3281;DHT22;1652;51.318;6.202;2023-07-31T08:55:17;17.20;99.90
3281;DHT22;1652;51.318;6.202;2023-07-31T08:57:44;17.20;99.90
3281;DHT22;1652;51.318;6.202;2023-07-31T09:00:13;17.20;99.90
3281;DHT22;1652;51.318;6.202;2023-07-31T09:03:00;17.20;99.90
3281;DHT22;1652;51.318;6.202;2023-07-31T09:05:30;17.30;99.90
3281;DHT22;1652;51.318;6.202;2023-07-31T09:07:58;17.20;99.90
3281;DHT22;1652;51.318;6.202;2023-07-31T09:10:25;17.20;99.90
3281;DHT22;1652;51.318;6.202;2023-07-31T09:12:52;17.30;99.90
3281;DHT22;1652;51.318;6.202;2023-07-31T09:15:19;17.30;99.90
3281;DHT22;1652;51.318;6.202;2023-07-31T09:18:04;17.30;99.90
3281;DHT22;1652;51.318;6.202;2023-07-31T09:20:32;17.20;99.90
3281;DHT22;1652;51.318;6.202;2023-07-31T09:25:35;17.30;99.90
3281;DHT22;1652;51.318;6.202;2023-07-31T09:28:04;17.20;99.90
3281;DHT22;1652;51.318;6.202;2023-07-31T09:30:52;17.20;99.90
3281;DHT22;1652;51.318;6.202;2023-07-31T09:33:19;17.20;99.90
3281;DHT22;1652;51.318;6.202;2023-07-31T09:35:47;17.20;99.90
3281;DHT22;1652;51.318;6.202;2023-07-31T09:38:16;17.20;99.90
3281;DHT22;1652;51.318;6.202;2023-07-31T09:40:47;17.40;99.90
3281;DHT22;1652;51.318;6.202;2023-07-31T09:43:19;17.40;99.90
3281;DHT22;1652;51.318;6.202;2023-07-31T09:45:47;17.40;99.90
3281;DHT22;1652;51.318;6.202;2023-07-31T09:48:18;17.40;99.90
3281;DHT22;1652;51.318;6.202;2023-07-31T09:50:49;17.40;99.90
3281;DHT22;1652;51.318;6.202;2023-07-31T09:53:16;17.40;99.90
3281;DHT22;1652;51.318;6.202;2023-07-31T09:55:43;17.60;99.90
3281;DHT22;1652;51.318;6.202;2023-07-31T09:58:12;17.60;99.90
3281;DHT22;1652;51.318;6.202;2023-07-31T10:00:39;17.70;99.90
3281;DHT22;1652;51.318;6.202;2023-07-31T10:03:08;17.90;99.90
3281;DHT22;1652;51.318;6.202;2023-07-31T10:05:39;18.00;99.90
3281;DHT22;1652;51.318;6.202;2023-07-31T10:08:09;18.10;99.90
3281;DHT22;1652;51.318;6.202;2023-07-31T10:10:37;18.10;99.90
3281;DHT22;1652;51.318;6.202;2023-07-31T10:13:07;18.20;99.90
3281;DHT22;1652;51.318;6.202;2023-07-31T10:15:36;18.20;99.90
3281;DHT22;1652;51.318;6.202;2023-07-31T10:18:06;18.30;99.90
3281;DHT22;1652;51.318;6.202;2023-07-31T10:20:34;18.30;99.90
3281;DHT22;1652;51.318;6.202;2023-07-31T10:23:01;18.30;99.90
3281;DHT22;1652;51.318;6.202;2023-07-31T10:25:29;18.30;99.90
3281;DHT22;1652;51.318;6.202;2023-07-31T10:27:57;18.20;99.90
3281;DHT22;1652;51.318;6.202;2023-07-31T10:30:30;18.20;99.90
3281;DHT22;1652;51.318;6.202;2023-07-31T10:32:59;18.20;99.90
3281;DHT22;1652;51.318;6.202;2023-07-31T10:35:27;18.20;99.90
3281;DHT22;1652;51.318;6.202;2023-07-31T10:37:54;18.30;99.90
3281;DHT22;1652;51.318;6.202;2023-07-31T10:40:26;18.30;99.90
3281;DHT22;1652;51.318;6.202;2023-07-31T10:42:54;18.30;99.90
3281;DHT22;1652;51.318;6.202;2023-07-31T10:48:07;18.20;99.90
3281;DHT22;1652;51.318;6.202;2023-07-31T10:50:38;18.20;99.90
3281;DHT22;1652;51.318;6.202;2023-07-31T10:53:05;18.10;99.90
3281;DHT22;1652;51.318;6.202;2023-07-31T10:55:40;18.10;99.90
3281;DHT22;1652;51.318;6.202;2023-07-31T10:58:12;18.10;99.90
3281;DHT22;1652;51.318;6.202;2023-07-31T11:00:41;18.10;99.90
3281;DHT22;1652;51.318;6.202;2023-07-31T11:03:12;18.00;99.90
3281;DHT22;1652;51.318;6.202;2023-07-31T11:10:45;18.20;99.90
3281;DHT22;1652;51.318;6.202;2023-07-31T11:13:12;18.20;99.90
3281;DHT22;1652;51.318;6.202;2023-07-31T11:15:39;18.30;99.90
3281;DHT22;1652;51.318;6.202;2023-07-31T11:18:06;18.30;99.90
3281;DHT22;1652;51.318;6.202;2023-07-31T11:20:35;18.40;99.90
3281;DHT22;1652;51.318;6.202;2023-07-31T11:23:05;18.40;99.90
3281;DHT22;1652;51.318;6.202;2023-07-31T11:25:33;18.60;99.90
3281;DHT22;1652;51.318;6.202;2023-07-31T11:28:14;18.60;99.90
3281;DHT22;1652;51.318;6.202;2023-07-31T11:30:42;18.50;99.90
3281;DHT22;1652;51.318;6.202;2023-07-31T11:33:11;18.50;99.90
3281;DHT22;1652;51.318;6.202;2023-07-31T11:35:42;18.50;99.90
3281;DHT22;1652;51.318;6.202;2023-07-31T11:38:14;18.50;99.90
3281;DHT22;1652;51.318;6.202;2023-07-31T11:40:47;18.50;99.90
3281;DHT22;1652;51.318;6.202;2023-07-31T11:43:14;18.50;99.90
3281;DHT22;1652;51.318;6.202;2023-07-31T11:45:55;18.50;99.90
3281;DHT22;1652;51.318;6.202;2023-07-31T11:50:58;18.70;99.90
3281;DHT22;1652;51.318;6.202;2023-07-31T11:53:31;18.80;99.90
3281;DHT22;1652;51.318;6.202;2023-07-31T11:56:01;18.90;99.90
3281;DHT22;1652;51.318;6.202;2023-07-31T11:58:31;18.90;99.90
3281;DHT22;1652;51.318;6.202;2023-07-31T12:00:59;18.80;99.90
3281;DHT22;1652;51.318;6.202;2023-07-31T12:03:26;18.90;99.90
3281;DHT22;1652;51.318;6.202;2023-07-31T12:05:54;18.90;99.90
3281;DHT22;1652;51.318;6.202;2023-07-31T12:08:22;18.80;99.90
3281;DHT22;1652;51.318;6.202;2023-07-31T12:10:51;18.80;99.90
3281;DHT22;1652;51.318;6.202;2023-07-31T12:13:23;18.70;99.90
3281;DHT22;1652;51.318;6.202;2023-07-31T12:15:55;18.70;99.90
3281;DHT22;1652;51.318;6.202;2023-07-31T12:18:24;18.70;99.90
3281;DHT22;1652;51.318;6.202;2023-07-31T12:20:58;18.80;99.90
3281;DHT22;1652;51.318;6.202;2023-07-31T12:23:30;19.00;99.90
3281;DHT22;1652;51.318;6.202;2023-07-31T12:28:34;19.40;99.90
3281;DHT22;1652;51.318;6.202;2023-07-31T12:31:02;19.50;99.90
3281;DHT22;1652;51.318;6.202;2023-07-31T12:33:35;19.60;99.90
3281;DHT22;1652;51.318;6.202;2023-07-31T12:36:03;19.80;99.90
3281;DHT22;1652;51.318;6.202;2023-07-31T12:38:30;20.20;99.90
3281;DHT22;1652;51.318;6.202;2023-07-31T12:40:57;20.40;99.90
3281;DHT22;1652;51.318;6.202;2023-07-31T12:43:24;20.40;99.90
3281;DHT22;1652;51.318;6.202;2023-07-31T12:45:53;20.40;99.90
3281;DHT22;1652;51.318;6.202;2023-07-31T12:48:20;20.30;99.90
3281;DHT22;1652;51.318;6.202;2023-07-31T12:50:47;20.20;99.90
3281;DHT22;1652;51.318;6.202;2023-07-31T12:53:15;20.10;99.90
3281;DHT22;1652;51.318;6.202;2023-07-31T12:55:42;20.00;99.90
3281;DHT22;1652;51.318;6.202;2023-07-31T12:58:09;19.80;99.90
3281;DHT22;1652;51.318;6.202;2023-07-31T13:00:36;19.70;99.90
3281;DHT22;1652;51.318;6.202;2023-07-31T13:03:03;19.60;99.90
3281;DHT22;1652;51.318;6.202;2023-07-31T13:05:31;19.70;99.90
3281;DHT22;1652;51.318;6.202;2023-07-31T13:07:58;19.80;99.90
3281;DHT22;1652;51.318;6.202;2023-07-31T13:10:24;19.80;99.90
3281;DHT22;1652;51.318;6.202;2023-07-31T13:12:53;19.70;99.90
3281;DHT22;1652;51.318;6.202;2023-07-31T13:15:20;19.60;99.90
3281;DHT22;1652;51.318;6.202;2023-07-31T13:17:47;19.50;99.90
3281;DHT22;1652;51.318;6.202;2023-07-31T13:20:14;19.60;99.90
3281;DHT22;1652;51.318;6.202;2023-07-31T13:22:41;19.50;99.90
3281;DHT22;1652;51.318;6.202;2023-07-31T13:25:12;19.50;99.90
3281;DHT22;1652;51.318;6.202;2023-07-31T13:27:39;19.60;99.90
3281;DHT22;1652;51.318;6.202;2023-07-31T13:30:06;19.70;99.90
3281;DHT22;1652;51.318;6.202;2023-07-31T13:32:33;19.80;99.90
3281;DHT22;1652;51.318;6.202;2023-07-31T13:35:00;19.90;99.90
3281;DHT22;1652;51.318;6.202;2023-07-31T13:37:27;20.00;99.90
3281;DHT22;1652;51.318;6.202;2023-07-31T13:39:54;20.10;99.90
3281;DHT22;1652;51.318;6.202;2023-07-31T13:42:21;20.00;99.90
3281;DHT22;1652;51.318;6.202;2023-07-31T13:44:49;19.90;99.90
3281;DHT22;1652;51.318;6.202;2023-07-31T13:47:15;19.80;99.90
3281;DHT22;1652;51.318;6.202;2023-07-31T13:49:42;19.70;99.90
3281;DHT22;1652;51.318;6.202;2023-07-31T13:52:10;19.70;99.90
3281;DHT22;1652;51.318;6.202;2023-07-31T13:54:37;19.70;99.90
3281;DHT22;1652;51.318;6.202;2023-07-31T13:57:04;19.70;99.90
3281;DHT22;1652;51.318;6.202;2023-07-31T13:59:31;19.70;99.90
3281;DHT22;1652;51.318;6.202;2023-07-31T14:01:58;19.60;99.90
3281;DHT22;1652;51.318;6.202;2023-07-31T14:04:25;19.60;99.90
3281;DHT22;1652;51.318;6.202;2023-07-31T14:06:52;19.70;99.90
3281;DHT22;1652;51.318;6.202;2023-07-31T14:09:19;19.80;99.90
3281;DHT22;1652;51.318;6.202;2023-07-31T14:11:46;19.80;99.90
3281;DHT22;1652;51.318;6.202;2023-07-31T14:14:13;19.80;99.90
3281;DHT22;1652;51.318;6.202;2023-07-31T14:16:40;19.70;99.90
3281;DHT22;1652;51.318;6.202;2023-07-31T14:19:07;19.70;99.90
3281;DHT22;1652;51.318;6.202;2023-07-31T14:21:35;19.70;99.90
3281;DHT22;1652;51.318;6.202;2023-07-31T14:24:02;19.80;99.90
3281;DHT22;1652;51.318;6.202;2023-07-31T14:26:29;19.80;99.90
3281;DHT22;1652;51.318;6.202;2023-07-31T14:28:56;19.80;99.90
3281;DHT22;1652;51.318;6.202;2023-07-31T14:31:23;19.80;99.90
3281;DHT22;1652;51.318;6.202;2023-07-31T14:33:50;19.90;99.90
3281;DHT22;1652;51.318;6.202;2023-07-31T14:36:17;19.80;99.90
3281;DHT22;1652;51.318;6.202;2023-07-31T14:38:44;19.90;99.90
3281;DHT22;1652;51.318;6.202;2023-07-31T14:41:11;19.90;99.90
3281;DHT22;1652;51.318;6.202;2023-07-31T14:43:38;19.80;99.90
3281;DHT22;1652;51.318;6.202;2023-07-31T14:46:05;19.80;99.90
3281;DHT22;1652;51.318;6.202;2023-07-31T14:48:32;19.70;99.90
3281;DHT22;1652;51.318;6.202;2023-07-31T14:51:00;19.70;99.90
3281;DHT22;1652;51.318;6.202;2023-07-31T14:53:27;19.70;99.90
3281;DHT22;1652;51.318;6.202;2023-07-31T14:55:54;19.70;99.90
3281;DHT22;1652;51.318;6.202;2023-07-31T14:58:22;19.80;99.90
3281;DHT22;1652;51.318;6.202;2023-07-31T15:00:49;19.80;99.90
3281;DHT22;1652;51.318;6.202;2023-07-31T15:03:16;19.80;99.90
3281;DHT22;1652;51.318;6.202;2023-07-31T15:05:43;19.80;99.90
3281;DHT22;1652;51.318;6.202;2023-07-31T15:08:10;19.70;99.90
3281;DHT22;1652;51.318;6.202;2023-07-31T15:10:37;19.50;99.90
3281;DHT22;1652;51.318;6.202;2023-07-31T15:13:04;19.30;99.90
3281;DHT22;1652;51.318;6.202;2023-07-31T15:15:31;19.10;99.90
3281;DHT22;1652;51.318;6.202;2023-07-31T15:17:58;19.00;99.90
3281;DHT22;1652;51.318;6.202;2023-07-31T15:20:25;18.90;99.90
3281;DHT22;1652;51.318;6.202;2023-07-31T15:22:52;18.80;99.90
3281;DHT22;1652;51.318;6.202;2023-07-31T15:25:19;18.80;99.90
3281;DHT22;1652;51.318;6.202;2023-07-31T15:27:46;18.70;99.90
3281;DHT22;1652;51.318;6.202;2023-07-31T15:30:13;18.70;99.90
3281;DHT22;1652;51.318;6.202;2023-07-31T15:32:40;18.60;99.90
3281;DHT22;1652;51.318;6.202;2023-07-31T15:35:07;18.50;99.90
3281;DHT22;1652;51.318;6.202;2023-07-31T15:37:34;18.40;99.90
3281;DHT22;1652;51.318;6.202;2023-07-31T15:40:01;18.40;99.90
3281;DHT22;1652;51.318;6.202;2023-07-31T15:42:28;18.40;99.90
3281;DHT22;1652;51.318;6.202;2023-07-31T15:44:58;18.40;99.90
3281;DHT22;1652;51.318;6.202;2023-07-31T15:47:25;18.40;99.90
3281;DHT22;1652;51.318;6.202;2023-07-31T15:49:52;18.40;99.90
3281;DHT22;1652;51.318;6.202;2023-07-31T15:52:18;18.50;99.90
3281;DHT22;1652;51.318;6.202;2023-07-31T15:54:45;18.50;99.90
3281;DHT22;1652;51.318;6.202;2023-07-31T15:57:12;18.40;99.90
3281;DHT22;1652;51.318;6.202;2023-07-31T15:59:39;18.40;99.90
3281;DHT22;1652;51.318;6.202;2023-07-31T16:02:08;18.40;99.90
3281;DHT22;1652;51.318;6.202;2023-07-31T16:04:38;18.30;99.90
3281;DHT22;1652;51.318;6.202;2023-07-31T16:07:05;18.20;99.90
3281;DHT22;1652;51.318;6.202;2023-07-31T16:09:32;18.20;99.90
3281;DHT22;1652;51.318;6.202;2023-07-31T16:11:59;18.20;99.90
3281;DHT22;1652;51.318;6.202;2023-07-31T16:14:26;18.20;99.90
3281;DHT22;1652;51.318;6.202;2023-07-31T16:16:53;18.20;99.90
3281;DHT22;1652;51.318;6.202;2023-07-31T16:19:20;18.20;99.90
3281;DHT22;1652;51.318;6.202;2023-07-31T16:21:48;18.20;99.90
3281;DHT22;1652;51.318;6.202;2023-07-31T16:24:14;18.20;99.90
3281;DHT22;1652;51.318;6.202;2023-07-31T16:26:41;18.20;99.90
3281;DHT22;1652;51.318;6.202;2023-07-31T16:29:09;18.10;99.90
3281;DHT22;1652;51.318;6.202;2023-07-31T16:31:36;18.20;99.90
3281;DHT22;1652;51.318;6.202;2023-07-31T16:34:21;18.20;99.90